Zim Qingdao — A8IZ2 — position and weather

sailwx.info

Track history (hours):
 
Tides and Currents Weather Stations Pressure Air Temp Water Temp Dewpoint Dewpoint Depression Visibility Wind Speed Wind Dir Waves Ship Positions

Zim Qingdao

Last reported at 2014-Nov-26 16:23 UTC. Time now 2014-Nov-26 17:29 UTC.
Position N 32°03' W 080°56'.

Length 260.61 m; beam 32.25 m; draft 12.6 m.

Type: Cargo ship. MMSI: 636012904.

Date/timePositionNaut miles runAvg speedWind from/ knotsBaromVisibWave heightAir tempDewpointWater temp
2014-Nov-26 16:23N 32°03' W 080°56'6 7.5
2014-Nov-26 15:33N 32°05' W 081°03'4 4.5
2014-Nov-26 14:33N 32°07' W 081°08'1 0.5
2014-Nov-26 13:32N 32°07' W 081°08'0 0.0
2014-Nov-26 12:26N 32°07' W 081°08'0 0.0
2014-Nov-26 11:26N 32°07' W 081°08'0 0.0
2014-Nov-26 09:17N 32°07' W 081°08'0 0.0
2014-Nov-26 08:32N 32°07' W 081°08'0 0.0
2014-Nov-26 07:29N 32°07' W 081°08'0 0.0
2014-Nov-26 06:14N 32°07' W 081°08'0 0.0
2014-Nov-26 05:32N 32°07' W 081°08'0 0.0
2014-Nov-26 04:32N 32°07' W 081°08'0 0.0
2014-Nov-26 03:29N 32°07' W 081°08'0 0.0
2014-Nov-26 02:32N 32°07' W 081°08'0 0.0
2014-Nov-26 01:29N 32°07' W 081°08'0 0.0
2014-Nov-26 00:32N 32°07' W 081°08'0 0.0
2014-Nov-25 22:32N 32°07' W 081°08'2 1.8
2014-Nov-25 21:30N 32°06' W 081°07'5 5.5
2014-Nov-25 20:34N 32°06' W 081°01'  
2014-Nov-23 04:33N 39°39' W 073°52'1615.8
2014-Nov-23 03:33N 39°55' W 073°51'3311.1
2014-Nov-23 00:33N 40°28' W 073°53'1211.7
2014-Nov-22 23:33N 40°37' W 074°03'5 5.1
2014-Nov-22 22:34N 40°39' W 074°09'2 1.4
2014-Nov-22 21:29N 40°41' W 074°09'0 0.0
2014-Nov-22 20:26N 40°41' W 074°09'0 0.0
2014-Nov-22 19:29N 40°41' W 074°09'0 0.0
2014-Nov-22 18:32N 40°41' W 074°09'0 0.0
2014-Nov-22 17:29N 40°41' W 074°09'0 0.0
2014-Nov-22 16:32N 40°41' W 074°09'0 0.0
2014-Nov-22 15:32N 40°41' W 074°09'0 0.0
2014-Nov-22 14:29N 40°41' W 074°09'0 0.0
2014-Nov-22 13:32N 40°41' W 074°09'0 0.0
2014-Nov-22 12:32N 40°41' W 074°09'0 0.0
2014-Nov-22 11:29N 40°41' W 074°09'0 0.0
2014-Nov-22 10:32N 40°41' W 074°09'0 0.0
2014-Nov-22 09:32N 40°41' W 074°09'0 0.0
2014-Nov-22 08:32N 40°41' W 074°09'0 0.0
2014-Nov-22 07:32N 40°41' W 074°09'0 0.0
2014-Nov-22 06:32N 40°41' W 074°09'0 0.0
2014-Nov-22 05:32N 40°41' W 074°09'0 0.0
2014-Nov-22 04:32N 40°41' W 074°09'0 0.0
2014-Nov-22 03:26N 40°41' W 074°09'0 0.0
2014-Nov-22 02:32N 40°41' W 074°09'0 0.0
2014-Nov-22 01:32N 40°41' W 074°09'0 0.0
2014-Nov-22 00:29N 40°41' W 074°09'0 0.0
2014-Nov-21 23:32N 40°41' W 074°09'0 0.0
2014-Nov-21 22:29N 40°41' W 074°09'0 0.0
2014-Nov-21 21:32N 40°41' W 074°09'0 0.0
2014-Nov-21 20:23N 40°41' W 074°09'0 0.0
2014-Nov-21 19:29N 40°41' W 074°09'0 0.0
2014-Nov-21 18:29N 40°41' W 074°09'0 0.0
2014-Nov-21 17:32N 40°41' W 074°09'2 2.2
2014-Nov-21 16:34N 40°39' W 074°09'6 5.5
2014-Nov-21 15:33N 40°36' W 074°02'1110.8
2014-Nov-21 14:33N 40°28' W 073°52'6813.5
2014-Nov-21 09:33N 40°31' W 072°23'1717.0
2014-Nov-21 08:33N 40°31' W 072°01'1716.9
2014-Nov-21 07:34N 40°32' W 071°39'1717.2
2014-Nov-21 06:33N 40°32' W 071°16'  
Track history (hours):
 
Tides and Currents Weather Stations Pressure Air Temp Water Temp Dewpoint Dewpoint Depression Visibility Wind Speed Wind Dir Waves Ship Positions

Zim Qingdao

Last reported at 2014-Nov-26 16:23 UTC. Time now 2014-Nov-26 17:29 UTC.
Position N 32°03' W 080°56'.

Length 260.61 m; beam 32.25 m; draft 12.6 m.

Type: Cargo ship. MMSI: 636012904.

Date/timePositionNaut miles runAvg speedWind from/ knotsBaromVisibWave heightAir tempDewpointWater temp
2014-Nov-26 16:23N 32°03' W 080°56'6 7.5
2014-Nov-26 15:33N 32°05' W 081°03'4 4.5
2014-Nov-26 14:33N 32°07' W 081°08'1 0.5
2014-Nov-26 13:32N 32°07' W 081°08'0 0.0
2014-Nov-26 12:26N 32°07' W 081°08'0 0.0
2014-Nov-26 11:26N 32°07' W 081°08'0 0.0
2014-Nov-26 09:17N 32°07' W 081°08'0 0.0
2014-Nov-26 08:32N 32°07' W 081°08'0 0.0
2014-Nov-26 07:29N 32°07' W 081°08'0 0.0
2014-Nov-26 06:14N 32°07' W 081°08'0 0.0
2014-Nov-26 05:32N 32°07' W 081°08'0 0.0
2014-Nov-26 04:32N 32°07' W 081°08'0 0.0
2014-Nov-26 03:29N 32°07' W 081°08'0 0.0
2014-Nov-26 02:32N 32°07' W 081°08'0 0.0
2014-Nov-26 01:29N 32°07' W 081°08'0 0.0
2014-Nov-26 00:32N 32°07' W 081°08'0 0.0
2014-Nov-25 22:32N 32°07' W 081°08'2 1.8
2014-Nov-25 21:30N 32°06' W 081°07'5 5.5
2014-Nov-25 20:34N 32°06' W 081°01'  
2014-Nov-23 04:33N 39°39' W 073°52'1615.8
2014-Nov-23 03:33N 39°55' W 073°51'3311.1
2014-Nov-23 00:33N 40°28' W 073°53'1211.7
2014-Nov-22 23:33N 40°37' W 074°03'5 5.1
2014-Nov-22 22:34N 40°39' W 074°09'2 1.4
2014-Nov-22 21:29N 40°41' W 074°09'0 0.0
2014-Nov-22 20:26N 40°41' W 074°09'0 0.0
2014-Nov-22 19:29N 40°41' W 074°09'0 0.0
2014-Nov-22 18:32N 40°41' W 074°09'0 0.0
2014-Nov-22 17:29N 40°41' W 074°09'0 0.0
2014-Nov-22 16:32N 40°41' W 074°09'0 0.0
2014-Nov-22 15:32N 40°41' W 074°09'0 0.0
2014-Nov-22 14:29N 40°41' W 074°09'0 0.0
2014-Nov-22 13:32N 40°41' W 074°09'0 0.0
2014-Nov-22 12:32N 40°41' W 074°09'0 0.0
2014-Nov-22 11:29N 40°41' W 074°09'0 0.0
2014-Nov-22 10:32N 40°41' W 074°09'0 0.0
2014-Nov-22 09:32N 40°41' W 074°09'0 0.0
2014-Nov-22 08:32N 40°41' W 074°09'0 0.0
2014-Nov-22 07:32N 40°41' W 074°09'0 0.0
2014-Nov-22 06:32N 40°41' W 074°09'0 0.0
2014-Nov-22 05:32N 40°41' W 074°09'0 0.0
2014-Nov-22 04:32N 40°41' W 074°09'0 0.0
2014-Nov-22 03:26N 40°41' W 074°09'0 0.0
2014-Nov-22 02:32N 40°41' W 074°09'0 0.0
2014-Nov-22 01:32N 40°41' W 074°09'0 0.0
2014-Nov-22 00:29N 40°41' W 074°09'0 0.0
2014-Nov-21 23:32N 40°41' W 074°09'0 0.0
2014-Nov-21 22:29N 40°41' W 074°09'0 0.0
2014-Nov-21 21:32N 40°41' W 074°09'0 0.0
2014-Nov-21 20:23N 40°41' W 074°09'0 0.0
2014-Nov-21 19:29N 40°41' W 074°09'0 0.0
2014-Nov-21 18:29N 40°41' W 074°09'0 0.0
2014-Nov-21 17:32N 40°41' W 074°09'2 2.2
2014-Nov-21 16:34N 40°39' W 074°09'6 5.5
2014-Nov-21 15:33N 40°36' W 074°02'1110.8
2014-Nov-21 14:33N 40°28' W 073°52'6813.5
2014-Nov-21 09:33N 40°31' W 072°23'1717.0
2014-Nov-21 08:33N 40°31' W 072°01'1716.9
2014-Nov-21 07:34N 40°32' W 071°39'1717.2
2014-Nov-21 06:33N 40°32' W 071°16'  

Dump ship's entire track history